Aeroporto :
LOGIN :

Iscrizione | Disclaimer

   EN    FR    IT 

 










Sommario :    VFR   VFR Marginale   IFR   IFR Intensivo   IFR Molto Intensivo
Visibilità : 
Base nubi : 
>= 8 km
>= 3000ft
5 / 8 km
1000 / 3000 ft
1500m / 5 km
500 / 1000 ft
800 / 1500m
200 / 500 ft
< 800m
< 200 ft
Simboli :   Temporali  Nebbia  Neve Forte  Precipitazioni Forti  Vento > 20 kt
SIGMETs :   Varie  Temporali  Ghiacco  Turbolenza  Onda orograficha  Ceneri Vulcaniche







- Altitudine del aeroporto : 1325 ft
- Codice IATA : EBU
- Carte del aeroporto


LFMH - St-Etienne Boutheon

ULTIMO METAR :
  • 161330Z AUTO VRB01KT CAVOK 23/06 Q1018 NOSIG

METARs OBSOLETI :
  • 161300Z AUTO VRB02KT CAVOK 22/07 Q1018 NOSIG
  • 161230Z AUTO 06003KT 340V130 CAVOK 21/08 Q1018 NOSIG
  • 161200Z AUTO VRB01KT CAVOK 20/10 Q1018 NOSIG
  • 161130Z AUTO VRB02KT CAVOK 19/11 Q1019 NOSIG
  • 161100Z AUTO VRB02KT CAVOK 18/11 Q1019 NOSIG

TAF TAF LFMH
Valido dal 16 a 09 ore il 17 a 09 ore UTC


160800Z 1609/1709 VRB02KT CAVOK
TEMPO 1612/1616 08006KT
ATIS : +33 4 77 36 17 51
Nessun NOTAM noto per questo aeroporto.



MetMap, La meteo Aeronautica in un colpo d'occhio ! - Copyright ORBIFLY Dicembre 2007 - Disclaimer

ORBIFLY MET'MAP TEAM :

Programmazione e sviluppo : Alexandra Zaïnal
Concezione e sviluppo : Baudouin d'Aumeries
Co-Programmazione e sviluppo : Marc-Olivier Méhu
Supporto tecnico e logistico : Manuel Goepfert
Aiuto per la traduzione : Arnaldo La Scala

Contatto : metmap@orbifly.com




FONTI E CREDITI :

   NOAA